Dades meteomassalio
Diari Summary for Gener 21, 2018 Units:  Both    English   Metric
« Previous Day
Next Day »
Diari Semanal Mensual Anual Personalitzat
  Maxima: Minima: Mijana:
Temperatura: TemperatureC °F /  -17.8 °C 13.3 °F /  -10.4 °C 14.8 °F /  -9.6 °C
Rosada: DewpointC °F /  -17.8 °C 5.8 °F /  -14.6 °C 8.3 °F /  -13.2 °C
Humitat: Humidity % 58 % 65 %
Velocitat del vent: WindSpeedKMH mph /  0 km/h - 39.9 mph /  64.2 km/h
Racha vent: WindSpeedGustKMH mph /  0 km/h - -
Vent:- - NW
Pressio: PressurehPa in /  0 hPa 1024.3 in /  34682.8 hPa -
Pluja: 0.0 in /  0 mm    
Historical Graphs
 
 
Tabular Data for Gener 21, 2018
Time Temperature Dew Point Pressure Wind Wind Speed Wind Gust Humidity Rainfall Rate (Hourly) solar Conditions
TemperatureC °F /  -17.8 °C DewpointC °F /  -17.8 °C PressurehPa in /  0 hPa Calm     Humidity % HourlyPrecipMM in /  0 mm SolarRadiationWatts/m^2 W/m2 Conditions
00:01 13.9 °F /  -10.1 °C 5.8 °F /  -14.6 °C 1024.9 in /  34703.1 hPa NNW 32.2 mph /  51.8 km/h 32.2 mph /  51.8 km/h 58 % 0.0 in /  0 mm 0.0 W/m2 CLR
00:06 13.9 °F /  -10.1 °C 6.0 °F /  -14.4 °C 1024.9 in /  34703.1 hPa North 29.6 mph /  47.6 km/h 29.6 mph /  47.6 km/h 59 % 0.0 in /  0 mm 0.0 W/m2 CLR
00:11 13.9 °F /  -10.1 °C 6.0 °F /  -14.4 °C 1024.9 in /  34703.1 hPa WNW 33.3 mph /  53.6 km/h 33.3 mph /  53.6 km/h 59 % 0.0 in /  0 mm 0.0 W/m2 CLR
00:16 14.4 °F /  -9.8 °C 6.3 °F /  -14.3 °C 1024.9 in /  34703.1 hPa North 24.1 mph /  38.8 km/h 24.1 mph /  38.8 km/h 58 % 0.0 in /  0 mm 0.0 W/m2 CLR
00:21 14.4 °F /  -9.8 °C 6.3 °F /  -14.3 °C 1024.9 in /  34703.1 hPa NW 48.1 mph /  77.4 km/h 48.1 mph /  77.4 km/h 58 % 0.0 in /  0 mm 0.0 W/m2 CLR
00:26 14.4 °F /  -9.8 °C 6.5 °F /  -14.2 °C 1024.9 in /  34703.1 hPa NW 40.7 mph /  65.5 km/h 40.7 mph /  65.5 km/h 59 % 0.0 in /  0 mm 0.0 W/m2 CLR
00:31 14.4 °F /  -9.8 °C 6.3 °F /  -14.3 °C 1024.6 in /  34693 hPa NW 37.0 mph /  59.5 km/h 37.0 mph /  59.5 km/h 58 % 0.0 in /  0 mm 0.0 W/m2 CLR
00:36 13.9 °F /  -10.1 °C 5.8 °F /  -14.6 °C 1024.9 in /  34703.1 hPa NNW 29.6 mph /  47.6 km/h 29.6 mph /  47.6 km/h 58 % 0.0 in /  0 mm 0.0 W/m2 CLR
00:41 13.9 °F /  -10.1 °C 6.0 °F /  -14.4 °C 1024.6 in /  34693 hPa NNE 40.7 mph /  65.5 km/h 40.7 mph /  65.5 km/h 59 % 0.0 in /  0 mm 0.0 W/m2 CLR
00:46 13.9 °F /  -10.1 °C 6.0 °F /  -14.4 °C 1024.6 in /  34693 hPa NW 31.5 mph /  50.7 km/h 31.5 mph /  50.7 km/h 59 % 0.0 in /  0 mm 0.0 W/m2 CLR
00:51 13.9 °F /  -10.1 °C 6.2 °F /  -14.3 °C 1024.6 in /  34693 hPa NW 25.9 mph /  41.7 km/h 25.9 mph /  41.7 km/h 60 % 0.0 in /  0 mm 0.0 W/m2 CLR
00:56 13.9 °F /  -10.1 °C 6.2 °F /  -14.3 °C 1024.6 in /  34693 hPa NNW 25.9 mph /  41.7 km/h 25.9 mph /  41.7 km/h 60 % 0.0 in /  0 mm 0.0 W/m2 CLR
01:01 13.9 °F /  -10.1 °C 6.2 °F /  -14.3 °C 1024.6 in /  34693 hPa NNW 29.6 mph /  47.6 km/h 29.6 mph /  47.6 km/h 60 % 0.0 in /  0 mm 0.0 W/m2 CLR
01:06 13.3 °F /  -10.4 °C 5.9 °F /  -14.5 °C 1024.6 in /  34693 hPa NW 40.7 mph /  65.5 km/h 40.7 mph /  65.5 km/h 61 % 0.0 in /  0 mm 0.0 W/m2 CLR
01:11 13.3 °F /  -10.4 °C 5.9 °F /  -14.5 °C 1024.6 in /  34693 hPa NW 31.5 mph /  50.7 km/h 31.5 mph /  50.7 km/h 61 % 0.0 in /  0 mm 0.0 W/m2 CLR
01:16 13.3 °F /  -10.4 °C 5.9 °F /  -14.5 °C 1024.6 in /  34693 hPa NNW 33.8 mph /  54.4 km/h 33.8 mph /  54.4 km/h 61 % 0.0 in /  0 mm 0.0 W/m2 CLR
01:21 13.9 °F /  -10.1 °C 6.5 °F /  -14.2 °C 1024.6 in /  34693 hPa NW 35.4 mph /  57 km/h 35.4 mph /  57 km/h 61 % 0.0 in /  0 mm 0.0 W/m2 CLR
01:26 13.9 °F /  -10.1 °C 6.5 °F /  -14.2 °C 1024.3 in /  34682.8 hPa NNW 37.0 mph /  59.5 km/h 37.0 mph /  59.5 km/h 61 % 0.0 in /  0 mm 0.0 W/m2 CLR
01:31 13.3 °F /  -10.4 °C 5.9 °F /  -14.5 °C 1024.3 in /  34682.8 hPa NW 42.6 mph /  68.6 km/h 42.6 mph /  68.6 km/h 61 % 0.0 in /  0 mm 0.0 W/m2 CLR
01:36 13.3 °F /  -10.4 °C 5.9 °F /  -14.5 °C 1024.6 in /  34693 hPa NW 40.7 mph /  65.5 km/h 40.7 mph /  65.5 km/h 61 % 0.0 in /  0 mm 0.0 W/m2 CLR
01:41 13.3 °F /  -10.4 °C 5.9 °F /  -14.5 °C 1024.6 in /  34693 hPa NW 42.6 mph /  68.6 km/h 42.6 mph /  68.6 km/h 61 % 0.0 in /  0 mm 0.0 W/m2 CLR
01:46 13.3 °F /  -10.4 °C 5.9 °F /  -14.5 °C 1024.6 in /  34693 hPa NNW 32.2 mph /  51.8 km/h 32.2 mph /  51.8 km/h 61 % 0.0 in /  0 mm 0.0 W/m2 CLR
01:51 13.3 °F /  -10.4 °C 6.2 °F /  -14.3 °C 1024.6 in /  34693 hPa NNW 37.0 mph /  59.5 km/h 37.0 mph /  59.5 km/h 62 % 0.0 in /  0 mm 0.0 W/m2 CLR
01:56 13.3 °F /  -10.4 °C 5.9 °F /  -14.5 °C 1024.6 in /  34693 hPa NNW 38.9 mph /  62.6 km/h 38.9 mph /  62.6 km/h 61 % 0.0 in /  0 mm 0.0 W/m2 CLR
02:01 13.3 °F /  -10.4 °C 6.2 °F /  -14.3 °C 1024.6 in /  34693 hPa NW 35.2 mph /  56.6 km/h 35.2 mph /  56.6 km/h 62 % 0.0 in /  0 mm 0.0 W/m2 CLR
02:06 13.3 °F /  -10.4 °C 6.2 °F /  -14.3 °C 1024.6 in /  34693 hPa NNW 38.9 mph /  62.6 km/h 38.9 mph /  62.6 km/h 62 % 0.0 in /  0 mm 0.0 W/m2 CLR
02:11 13.3 °F /  -10.4 °C 6.2 °F /  -14.3 °C 1024.6 in /  34693 hPa NNW 40.2 mph /  64.7 km/h 40.2 mph /  64.7 km/h 62 % 0.0 in /  0 mm 0.0 W/m2 CLR
02:16 13.3 °F /  -10.4 °C 6.2 °F /  -14.3 °C 1024.6 in /  34693 hPa NW 31.5 mph /  50.7 km/h 31.5 mph /  50.7 km/h 62 % 0.0 in /  0 mm 0.0 W/m2 CLR
02:21 13.3 °F /  -10.4 °C 6.2 °F /  -14.3 °C 1024.6 in /  34693 hPa NNW 35.2 mph /  56.6 km/h 35.2 mph /  56.6 km/h 62 % 0.0 in /  0 mm 0.0 W/m2 CLR
02:26 13.3 °F /  -10.4 °C 6.2 °F /  -14.3 °C 1024.6 in /  34693 hPa NW 33.3 mph /  53.6 km/h 33.3 mph /  53.6 km/h 62 % 0.0 in /  0 mm 0.0 W/m2 CLR
02:31 13.3 °F /  -10.4 °C 5.9 °F /  -14.5 °C 1024.6 in /  34693 hPa NW 33.3 mph /  53.6 km/h 33.3 mph /  53.6 km/h 61 % 0.0 in /  0 mm 0.0 W/m2 CLR
02:37 13.9 °F /  -10.1 °C 6.7 °F /  -14.1 °C 1024.6 in /  34693 hPa NNW 32.2 mph /  51.8 km/h 32.2 mph /  51.8 km/h 62 % 0.0 in /  0 mm 0.0 W/m2 CLR
02:42 13.9 °F /  -10.1 °C 6.5 °F /  -14.2 °C 1024.6 in /  34693 hPa NW 31.5 mph /  50.7 km/h 31.5 mph /  50.7 km/h 61 % 0.0 in /  0 mm 0.0 W/m2 CLR
02:47 13.9 °F /  -10.1 °C 6.7 °F /  -14.1 °C 1024.6 in /  34693 hPa NW 40.2 mph /  64.7 km/h 40.2 mph /  64.7 km/h 62 % 0.0 in /  0 mm 0.0 W/m2 CLR
02:52 13.9 °F /  -10.1 °C 6.5 °F /  -14.2 °C 1024.6 in /  34693 hPa WNW 29.6 mph /  47.6 km/h 29.6 mph /  47.6 km/h 61 % 0.0 in /  0 mm 0.0 W/m2 CLR
02:56 13.9 °F /  -10.1 °C 6.5 °F /  -14.2 °C 1024.6 in /  34693 hPa NW 33.3 mph /  53.6 km/h 33.3 mph /  53.6 km/h 61 % 0.0 in /  0 mm 0.0 W/m2 CLR
03:01 13.3 °F /  -10.4 °C 5.9 °F /  -14.5 °C 1024.6 in /  34693 hPa NNW 43.4 mph /  69.8 km/h 43.4 mph /  69.8 km/h 61 % 0.0 in /  0 mm 0.0 W/m2 CLR
03:06 13.9 °F /  -10.1 °C 6.5 °F /  -14.2 °C 1024.6 in /  34693 hPa NW 38.9 mph /  62.6 km/h 38.9 mph /  62.6 km/h 61 % 0.0 in /  0 mm 0.0 W/m2 CLR
03:11 13.9 °F /  -10.1 °C 6.5 °F /  -14.2 °C 1024.6 in /  34693 hPa NW 35.2 mph /  56.6 km/h 35.2 mph /  56.6 km/h 61 % 0.0 in /  0 mm 0.0 W/m2 CLR
03:17 13.9 °F /  -10.1 °C 6.5 °F /  -14.2 °C 1024.9 in /  34703.1 hPa NW 31.5 mph /  50.7 km/h 31.5 mph /  50.7 km/h 61 % 0.0 in /  0 mm 0.0 W/m2 CLR
03:22 13.9 °F /  -10.1 °C 6.7 °F /  -14.1 °C 1024.9 in /  34703.1 hPa NNW 31.5 mph /  50.7 km/h 31.5 mph /  50.7 km/h 62 % 0.0 in /  0 mm 0.0 W/m2 CLR
03:27 13.3 °F /  -10.4 °C 6.2 °F /  -14.3 °C 1024.9 in /  34703.1 hPa WNW 25.9 mph /  41.7 km/h 25.9 mph /  41.7 km/h 62 % 0.0 in /  0 mm 0.0 W/m2 CLR
03:32 13.9 °F /  -10.1 °C 6.7 °F /  -14.1 °C 1024.9 in /  34703.1 hPa WNW 29.6 mph /  47.6 km/h 29.6 mph /  47.6 km/h 62 % 0.0 in /  0 mm 0.0 W/m2 CLR
03:37 13.3 °F /  -10.4 °C 6.2 °F /  -14.3 °C 1024.9 in /  34703.1 hPa NNW 29.6 mph /  47.6 km/h 29.6 mph /  47.6 km/h 62 % 0.0 in /  0 mm 0.0 W/m2 CLR
03:42 13.3 °F /  -10.4 °C 6.2 °F /  -14.3 °C 1024.9 in /  34703.1 hPa NNW 31.5 mph /  50.7 km/h 31.5 mph /  50.7 km/h 62 % 0.0 in /  0 mm 0.0 W/m2 CLR
03:47 13.3 °F /  -10.4 °C 6.2 °F /  -14.3 °C 1024.9 in /  34703.1 hPa NNW 37.0 mph /  59.5 km/h 37.0 mph /  59.5 km/h 62 % 0.0 in /  0 mm 0.0 W/m2 CLR
03:52 13.9 °F /  -10.1 °C 6.9 °F /  -13.9 °C 1024.9 in /  34703.1 hPa North 40.7 mph /  65.5 km/h 40.7 mph /  65.5 km/h 63 % 0.0 in /  0 mm 0.0 W/m2 CLR
03:57 13.9 °F /  -10.1 °C 6.9 °F /  -13.9 °C 1024.9 in /  34703.1 hPa NW 51.8 mph /  83.4 km/h 51.8 mph /  83.4 km/h 63 % 0.0 in /  0 mm 0.0 W/m2 CLR
04:02 13.9 °F /  -10.1 °C 6.9 °F /  -13.9 °C 1025.3 in /  34716.7 hPa NW 44.4 mph /  71.5 km/h 44.4 mph /  71.5 km/h 63 % 0.0 in /  0 mm 0.0 W/m2 CLR
04:07 13.9 °F /  -10.1 °C 6.9 °F /  -13.9 °C 1025.3 in /  34716.7 hPa NW 42.6 mph /  68.6 km/h 42.6 mph /  68.6 km/h 63 % 0.0 in /  0 mm 0.0 W/m2 CLR
04:12 13.9 °F /  -10.1 °C 6.9 °F /  -13.9 °C 1025.3 in /  34716.7 hPa NW 42.6 mph /  68.6 km/h 42.6 mph /  68.6 km/h 63 % 0.0 in /  0 mm 0.0 W/m2 CLR
04:17 13.9 °F /  -10.1 °C 6.9 °F /  -13.9 °C 1025.3 in /  34716.7 hPa NW 31.5 mph /  50.7 km/h 31.5 mph /  50.7 km/h 63 % 0.0 in /  0 mm 0.0 W/m2 CLR
04:22 13.9 °F /  -10.1 °C 6.9 °F /  -13.9 °C 1025.3 in /  34716.7 hPa NNW 40.7 mph /  65.5 km/h 40.7 mph /  65.5 km/h 63 % 0.0 in /  0 mm 0.0 W/m2 CLR
04:27 13.9 °F /  -10.1 °C 6.9 °F /  -13.9 °C 1025.3 in /  34716.7 hPa NW 32.2 mph /  51.8 km/h 32.2 mph /  51.8 km/h 63 % 0.0 in /  0 mm 0.0 W/m2 CLR
04:32 13.9 °F /  -10.1 °C 7.2 °F /  -13.8 °C 1025.3 in /  34716.7 hPa NNW 42.6 mph /  68.6 km/h 42.6 mph /  68.6 km/h 64 % 0.0 in /  0 mm 0.0 W/m2 CLR
04:37 13.9 °F /  -10.1 °C 7.2 °F /  -13.8 °C 1025.6 in /  34726.8 hPa WNW 31.5 mph /  50.7 km/h 31.5 mph /  50.7 km/h 64 % 0.0 in /  0 mm 0.0 W/m2 CLR
04:42 13.9 °F /  -10.1 °C 7.2 °F /  -13.8 °C 1025.3 in /  34716.7 hPa NW 33.3 mph /  53.6 km/h 33.3 mph /  53.6 km/h 64 % 0.0 in /  0 mm 0.0 W/m2 CLR
04:47 13.9 °F /  -10.1 °C 7.2 °F /  -13.8 °C 1025.3 in /  34716.7 hPa NW 32.2 mph /  51.8 km/h 32.2 mph /  51.8 km/h 64 % 0.0 in /  0 mm 0.0 W/m2 CLR
04:52 13.9 °F /  -10.1 °C 7.2 °F /  -13.8 °C 1025.3 in /  34716.7 hPa NW 48.1 mph /  77.4 km/h 48.1 mph /  77.4 km/h 64 % 0.0 in /  0 mm 0.0 W/m2 CLR
04:57 13.9 °F /  -10.1 °C 7.2 °F /  -13.8 °C 1025.3 in /  34716.7 hPa WNW 35.2 mph /  56.6 km/h 35.2 mph /  56.6 km/h 64 % 0.0 in /  0 mm 0.0 W/m2 CLR
05:02 13.9 °F /  -10.1 °C 7.2 °F /  -13.8 °C 1025.3 in /  34716.7 hPa NW 42.6 mph /  68.6 km/h 42.6 mph /  68.6 km/h 64 % 0.0 in /  0 mm 0.0 W/m2 CLR
05:07 13.9 °F /  -10.1 °C 7.2 °F /  -13.8 °C 1025.3 in /  34716.7 hPa NNW 33.3 mph /  53.6 km/h 33.3 mph /  53.6 km/h 64 % 0.0 in /  0 mm 0.0 W/m2 CLR
05:12 13.9 °F /  -10.1 °C 7.4 °F /  -13.7 °C 1025.3 in /  34716.7 hPa NNW 31.5 mph /  50.7 km/h 31.5 mph /  50.7 km/h 65 % 0.0 in /  0 mm 0.0 W/m2 CLR
05:17 13.9 °F /  -10.1 °C 7.4 °F /  -13.7 °C 1025.3 in /  34716.7 hPa NNW 42.6 mph /  68.6 km/h 42.6 mph /  68.6 km/h 65 % 0.0 in /  0 mm 0.0 W/m2 CLR
05:22 13.9 °F /  -10.1 °C 7.4 °F /  -13.7 °C 1025.3 in /  34716.7 hPa NW 40.7 mph /  65.5 km/h 40.7 mph /  65.5 km/h 65 % 0.0 in /  0 mm 0.0 W/m2 CLR
05:27 13.9 °F /  -10.1 °C 7.4 °F /  -13.7 °C 1025.3 in /  34716.7 hPa NW 30.6 mph /  49.2 km/h 30.6 mph /  49.2 km/h 65 % 0.0 in /  0 mm 0.0 W/m2 CLR
05:32 13.9 °F /  -10.1 °C 7.4 °F /  -13.7 °C 1025.3 in /  34716.7 hPa NW 31.5 mph /  50.7 km/h 31.5 mph /  50.7 km/h 65 % 0.0 in /  0 mm 0.0 W/m2 CLR
05:37 13.9 °F /  -10.1 °C 7.4 °F /  -13.7 °C 1025.3 in /  34716.7 hPa NW 41.8 mph /  67.3 km/h 41.8 mph /  67.3 km/h 65 % 0.0 in /  0 mm 0.0 W/m2 CLR
05:42 13.9 °F /  -10.1 °C 7.4 °F /  -13.7 °C 1025.3 in /  34716.7 hPa NW 41.8 mph /  67.3 km/h 41.8 mph /  67.3 km/h 65 % 0.0 in /  0 mm 0.0 W/m2 CLR
05:47 13.3 °F /  -10.4 °C 6.9 °F /  -13.9 °C 1025.3 in /  34716.7 hPa NW 42.6 mph /  68.6 km/h 42.6 mph /  68.6 km/h 65 % 0.0 in /  0 mm 0.0 W/m2 CLR
05:52 13.9 °F /  -10.1 °C 7.4 °F /  -13.7 °C 1025.6 in /  34726.8 hPa NW 40.7 mph /  65.5 km/h 40.7 mph /  65.5 km/h 65 % 0.0 in /  0 mm 0.0 W/m2 CLR
05:57 13.9 °F /  -10.1 °C 7.6 °F /  -13.6 °C 1025.6 in /  34726.8 hPa NW 38.9 mph /  62.6 km/h 38.9 mph /  62.6 km/h 66 % 0.0 in /  0 mm 0.0 W/m2 CLR
06:02 13.9 °F /  -10.1 °C 7.6 °F /  -13.6 °C 1025.3 in /  34716.7 hPa NW 42.6 mph /  68.6 km/h 42.6 mph /  68.6 km/h 66 % 0.0 in /  0 mm 0.0 W/m2 CLR
06:07 13.3 °F /  -10.4 °C 7.1 °F /  -13.8 °C 1025.3 in /  34716.7 hPa NW 42.6 mph /  68.6 km/h 42.6 mph /  68.6 km/h 66 % 0.0 in /  0 mm 0.0 W/m2 CLR
06:12 13.3 °F /  -10.4 °C 7.3 °F /  -13.7 °C 1025.3 in /  34716.7 hPa NW 38.9 mph /  62.6 km/h 38.9 mph /  62.6 km/h 67 % 0.0 in /  0 mm 0.0 W/m2 CLR
06:17 13.3 °F /  -10.4 °C 7.3 °F /  -13.7 °C 1025.3 in /  34716.7 hPa NW 35.2 mph /  56.6 km/h 35.2 mph /  56.6 km/h 67 % 0.0 in /  0 mm 0.0 W/m2 CLR
06:22 13.9 °F /  -10.1 °C 7.8 °F /  -13.4 °C 1025.3 in /  34716.7 hPa NNW 37.0 mph /  59.5 km/h 37.0 mph /  59.5 km/h 67 % 0.0 in /  0 mm 0.0 W/m2 CLR
06:27 13.9 °F /  -10.1 °C 7.8 °F /  -13.4 °C 1025.6 in /  34726.8 hPa NW 46.3 mph /  74.5 km/h 46.3 mph /  74.5 km/h 67 % 0.0 in /  0 mm 0.0 W/m2 CLR
06:32 13.9 °F /  -10.1 °C 7.8 °F /  -13.4 °C 1025.3 in /  34716.7 hPa NNW 44.4 mph /  71.5 km/h 44.4 mph /  71.5 km/h 67 % 0.0 in /  0 mm 0.0 W/m2 CLR
06:37 13.9 °F /  -10.1 °C 7.8 °F /  -13.4 °C 1025.6 in /  34726.8 hPa NNW 48.1 mph /  77.4 km/h 48.1 mph /  77.4 km/h 67 % 0.0 in /  0 mm 0.0 W/m2 CLR
06:41 13.3 °F /  -10.4 °C 7.3 °F /  -13.7 °C 1025.3 in /  34716.7 hPa NNW 46.3 mph /  74.5 km/h 46.3 mph /  74.5 km/h 67 % 0.0 in /  0 mm 0.0 W/m2 CLR
06:46 13.3 °F /  -10.4 °C 7.3 °F /  -13.7 °C 1025.6 in /  34726.8 hPa NW 42.6 mph /  68.6 km/h 42.6 mph /  68.6 km/h 67 % 0.0 in /  0 mm 0.0 W/m2 CLR
06:51 13.9 °F /  -10.1 °C 7.8 °F /  -13.4 °C 1025.6 in /  34726.8 hPa NNW 42.6 mph /  68.6 km/h 42.6 mph /  68.6 km/h 67 % 0.0 in /  0 mm 0.0 W/m2 CLR
07:01 13.3 °F /  -10.4 °C 7.1 °F /  -13.8 °C 1025.6 in /  34726.8 hPa NW 40.7 mph /  65.5 km/h 40.7 mph /  65.5 km/h 66 % 0.0 in /  0 mm 0.0 W/m2 CLR
07:06 13.3 °F /  -10.4 °C 7.3 °F /  -13.7 °C 1025.6 in /  34726.8 hPa NW 40.7 mph /  65.5 km/h 40.7 mph /  65.5 km/h 67 % 0.0 in /  0 mm 0.0 W/m2 CLR
07:11 13.3 °F /  -10.4 °C 7.3 °F /  -13.7 °C 1025.6 in /  34726.8 hPa NW 40.7 mph /  65.5 km/h 40.7 mph /  65.5 km/h 67 % 0.0 in /  0 mm 0.0 W/m2 CLR
07:21 13.3 °F /  -10.4 °C 7.1 °F /  -13.8 °C 1025.6 in /  34726.8 hPa NW 38.9 mph /  62.6 km/h 38.9 mph /  62.6 km/h 66 % 0.0 in /  0 mm 0.0 W/m2 CLR
07:26 13.9 °F /  -10.1 °C 7.6 °F /  -13.6 °C 1026.0 in /  34740.4 hPa NW 42.6 mph /  68.6 km/h 42.6 mph /  68.6 km/h 66 % 0.0 in /  0 mm 0.0 W/m2 CLR
07:41 13.9 °F /  -10.1 °C 7.6 °F /  -13.6 °C 1026.3 in /  34750.5 hPa NW 31.5 mph /  50.7 km/h 31.5 mph /  50.7 km/h 66 % 0.0 in /  0 mm 0.0 W/m2 CLR
07:46 13.9 °F /  -10.1 °C 7.6 °F /  -13.6 °C 1026.3 in /  34750.5 hPa WNW 32.2 mph /  51.8 km/h 32.2 mph /  51.8 km/h 66 % 0.0 in /  0 mm 0.0 W/m2 CLR
07:51 13.9 °F /  -10.1 °C 7.4 °F /  -13.7 °C 1026.6 in /  34760.7 hPa NW 33.3 mph /  53.6 km/h 33.3 mph /  53.6 km/h 65 % 0.0 in /  0 mm 0.0 W/m2 CLR
07:56 13.9 °F /  -10.1 °C 7.4 °F /  -13.7 °C 1026.6 in /  34760.7 hPa NW 29.6 mph /  47.6 km/h 29.6 mph /  47.6 km/h 65 % 0.0 in /  0 mm 0.0 W/m2 CLR
08:01 13.9 °F /  -10.1 °C 7.6 °F /  -13.6 °C 1026.6 in /  34760.7 hPa WNW 31.5 mph /  50.7 km/h 31.5 mph /  50.7 km/h 66 % 0.0 in /  0 mm 0.0 W/m2 CLR
08:11 13.9 °F /  -10.1 °C 7.6 °F /  -13.6 °C 1027.0 in /  34774.2 hPa NW 27.8 mph /  44.7 km/h 27.8 mph /  44.7 km/h 66 % 0.0 in /  0 mm 0.0 W/m2 OVC
08:16 13.3 °F /  -10.4 °C 7.1 °F /  -13.8 °C 1027.0 in /  34774.2 hPa NW 29.6 mph /  47.6 km/h 29.6 mph /  47.6 km/h 66 % 0.0 in /  0 mm 0.0 W/m2 OVC
08:21 13.3 °F /  -10.4 °C 7.1 °F /  -13.8 °C 1027.0 in /  34774.2 hPa NW 31.5 mph /  50.7 km/h 31.5 mph /  50.7 km/h 66 % 0.0 in /  0 mm 0.0 W/m2 OVC
08:26 13.3 °F /  -10.4 °C 7.1 °F /  -13.8 °C 1027.0 in /  34774.2 hPa NW 24.1 mph /  38.8 km/h 24.1 mph /  38.8 km/h 66 % 0.0 in /  0 mm 0.0 W/m2 OVC
08:31 13.3 °F /  -10.4 °C 7.1 °F /  -13.8 °C 1027.0 in /  34774.2 hPa NW 24.1 mph /  38.8 km/h 24.1 mph /  38.8 km/h 66 % 0.0 in /  0 mm 5.0 W/m2 OVC
08:41 13.3 °F /  -10.4 °C 7.3 °F /  -13.7 °C 1027.0 in /  34774.2 hPa NW 29.6 mph /  47.6 km/h 29.6 mph /  47.6 km/h 67 % 0.0 in /  0 mm 7.0 W/m2 BKN
08:46 13.3 °F /  -10.4 °C 7.3 °F /  -13.7 °C 1027.0 in /  34774.2 hPa NW 31.5 mph /  50.7 km/h 31.5 mph /  50.7 km/h 67 % 0.0 in /  0 mm 9.0 W/m2 BKN
08:51 13.3 °F /  -10.4 °C 7.3 °F /  -13.7 °C 1027.0 in /  34774.2 hPa NW 25.9 mph /  41.7 km/h 25.9 mph /  41.7 km/h 67 % 0.0 in /  0 mm 11.0 W/m2 BKN
09:06 13.3 °F /  -10.4 °C 7.3 °F /  -13.7 °C 1027.0 in /  34774.2 hPa NW 33.3 mph /  53.6 km/h 33.3 mph /  53.6 km/h 67 % 0.0 in /  0 mm 14.0 W/m2 BKN
09:16 13.3 °F /  -10.4 °C 7.6 °F /  -13.6 °C 1027.0 in /  34774.2 hPa NNW 25.7 mph /  41.4 km/h 26.2 mph /  42.2 km/h 68 % 0.0 in /  0 mm 18.0 W/m2 BKN
09:21 13.3 °F /  -10.4 °C 7.6 °F /  -13.6 °C 1027.0 in /  34774.2 hPa NNW 29.6 mph /  47.6 km/h 29.6 mph /  47.6 km/h 68 % 0.0 in /  0 mm 19.0 W/m2 BKN
09:37 13.3 °F /  -10.4 °C 7.6 °F /  -13.6 °C 1027.0 in /  34774.2 hPa NW 42.6 mph /  68.6 km/h 42.6 mph /  68.6 km/h 68 % 0.0 in /  0 mm 25.0 W/m2 BKN
09:42 13.3 °F /  -10.4 °C 7.6 °F /  -13.6 °C 1027.0 in /  34774.2 hPa NW 31.5 mph /  50.7 km/h 31.5 mph /  50.7 km/h 68 % 0.0 in /  0 mm 26.0 W/m2 BKN
09:52 13.3 °F /  -10.4 °C 7.3 °F /  -13.7 °C 1027.0 in /  34774.2 hPa NW 31.5 mph /  50.7 km/h 31.5 mph /  50.7 km/h 67 % 0.0 in /  0 mm 30.0 W/m2 BKN
09:57 13.3 °F /  -10.4 °C 7.3 °F /  -13.7 °C 1027.3 in /  34784.4 hPa NW 42.6 mph /  68.6 km/h 42.6 mph /  68.6 km/h 67 % 0.0 in /  0 mm 35.0 W/m2 BKN
10:02 13.9 °F /  -10.1 °C 7.8 °F /  -13.4 °C 1027.3 in /  34784.4 hPa WNW 33.3 mph /  53.6 km/h 33.3 mph /  53.6 km/h 67 % 0.0 in /  0 mm 39.0 W/m2 BKN
10:07 13.3 °F /  -10.4 °C 7.3 °F /  -13.7 °C 1027.3 in /  34784.4 hPa WNW 35.2 mph /  56.6 km/h 35.2 mph /  56.6 km/h 67 % 0.0 in /  0 mm 42.0 W/m2 BKN
10:12 13.9 °F /  -10.1 °C 7.8 °F /  -13.4 °C 1027.3 in /  34784.4 hPa NW 38.9 mph /  62.6 km/h 38.9 mph /  62.6 km/h 67 % 0.0 in /  0 mm 44.0 W/m2 BKN
10:17 13.3 °F /  -10.4 °C 7.6 °F /  -13.6 °C 1027.3 in /  34784.4 hPa WNW 22.2 mph /  35.7 km/h 22.2 mph /  35.7 km/h 68 % 0.0 in /  0 mm 54.0 W/m2 SCT
10:22 13.9 °F /  -10.1 °C 8.1 °F /  -13.3 °C 1027.3 in /  34784.4 hPa NNW 44.4 mph /  71.5 km/h 44.4 mph /  71.5 km/h 68 % 0.0 in /  0 mm 67.0 W/m2 SCT
10:27 13.9 °F /  -10.1 °C 8.1 °F /  -13.3 °C 1027.3 in /  34784.4 hPa NW 31.5 mph /  50.7 km/h 31.5 mph /  50.7 km/h 68 % 0.0 in /  0 mm 74.0 W/m2 SCT
10:32 13.9 °F /  -10.1 °C 8.1 °F /  -13.3 °C 1027.3 in /  34784.4 hPa NW 37.0 mph /  59.5 km/h 37.0 mph /  59.5 km/h 68 % 0.0 in /  0 mm 72.0 W/m2 FEW
10:37 13.9 °F /  -10.1 °C 8.1 °F /  -13.3 °C 1027.3 in /  34784.4 hPa NW 40.7 mph /  65.5 km/h 40.7 mph /  65.5 km/h 68 % 0.0 in /  0 mm 83.0 W/m2 FEW
10:42 13.9 °F /  -10.1 °C 8.1 °F /  -13.3 °C 1027.3 in /  34784.4 hPa NNW 38.9 mph /  62.6 km/h 38.9 mph /  62.6 km/h 68 % 0.0 in /  0 mm 83.0 W/m2 FEW
10:47 13.9 °F /  -10.1 °C 8.1 °F /  -13.3 °C 1027.3 in /  34784.4 hPa NNW 35.2 mph /  56.6 km/h 35.2 mph /  56.6 km/h 68 % 0.0 in /  0 mm 111.0 W/m2 CLR
10:52 13.9 °F /  -10.1 °C 8.1 °F /  -13.3 °C 1027.3 in /  34784.4 hPa NNW 35.4 mph /  57 km/h 35.4 mph /  57 km/h 68 % 0.0 in /  0 mm 221.0 W/m2 CLR
10:57 14.4 °F /  -9.8 °C 8.4 °F /  -13.1 °C 1027.3 in /  34784.4 hPa North 48.1 mph /  77.4 km/h 48.1 mph /  77.4 km/h 67 % 0.0 in /  0 mm 220.0 W/m2 CLR
11:02 15.0 °F /  -9.4 °C 8.9 °F /  -12.8 °C 1027.0 in /  34774.2 hPa North 38.9 mph /  62.6 km/h 38.9 mph /  62.6 km/h 67 % 0.0 in /  0 mm 353.0 W/m2 CLR
11:07 15.0 °F /  -9.4 °C 8.7 °F /  -12.9 °C 1027.3 in /  34784.4 hPa NNW 55.5 mph /  89.3 km/h 55.5 mph /  89.3 km/h 66 % 0.0 in /  0 mm 343.0 W/m2 CLR
11:12 15.6 °F /  -9.1 °C 9.2 °F /  -12.7 °C 1027.3 in /  34784.4 hPa NNW 55.5 mph /  89.3 km/h 55.5 mph /  89.3 km/h 66 % 0.0 in /  0 mm 329.0 W/m2 CLR
11:17 15.6 °F /  -9.1 °C 9.0 °F /  -12.8 °C 1027.7 in /  34797.9 hPa NNW 46.3 mph /  74.5 km/h 46.3 mph /  74.5 km/h 65 % 0.0 in /  0 mm 369.0 W/m2 CLR
11:22 15.6 °F /  -9.1 °C 9.0 °F /  -12.8 °C 1027.7 in /  34797.9 hPa NW 55.5 mph /  89.3 km/h 55.5 mph /  89.3 km/h 65 % 0.0 in /  0 mm 345.0 W/m2 CLR
11:27 15.6 °F /  -9.1 °C 9.0 °F /  -12.8 °C 1027.7 in /  34797.9 hPa North 48.1 mph /  77.4 km/h 48.1 mph /  77.4 km/h 65 % 0.0 in /  0 mm 413.0 W/m2 CLR
11:32 16.1 °F /  -8.8 °C 9.3 °F /  -12.6 °C 1027.3 in /  34784.4 hPa NNW 51.8 mph /  83.4 km/h 51.8 mph /  83.4 km/h 64 % 0.0 in /  0 mm 417.0 W/m2 CLR
11:37 16.1 °F /  -8.8 °C 9.1 °F /  -12.7 °C 1027.3 in /  34784.4 hPa North 55.5 mph /  89.3 km/h 55.5 mph /  89.3 km/h 63 % 0.0 in /  0 mm 418.0 W/m2 CLR
11:42 16.1 °F /  -8.8 °C 9.1 °F /  -12.7 °C 1027.3 in /  34784.4 hPa NNW 61.1 mph /  98.3 km/h 61.1 mph /  98.3 km/h 63 % 0.0 in /  0 mm 420.0 W/m2 CLR
11:47 16.1 °F /  -8.8 °C 9.1 °F /  -12.7 °C 1027.3 in /  34784.4 hPa NNW 55.5 mph /  89.3 km/h 55.5 mph /  89.3 km/h 63 % 0.0 in /  0 mm 404.0 W/m2 CLR
11:52 16.1 °F /  -8.8 °C 9.1 °F /  -12.7 °C 1027.3 in /  34784.4 hPa NW 48.1 mph /  77.4 km/h 48.1 mph /  77.4 km/h 63 % 0.0 in /  0 mm 432.0 W/m2 CLR
11:57 16.1 °F /  -8.8 °C 8.8 °F /  -12.9 °C 1027.0 in /  34774.2 hPa NNW 51.8 mph /  83.4 km/h 51.8 mph /  83.4 km/h 62 % 0.0 in /  0 mm 439.0 W/m2 CLR
12:02 16.7 °F /  -8.5 °C 9.3 °F /  -12.6 °C 1027.0 in /  34774.2 hPa NNW 61.1 mph /  98.3 km/h 61.1 mph /  98.3 km/h 62 % 0.0 in /  0 mm 443.0 W/m2 CLR
12:07 16.7 °F /  -8.5 °C 9.6 °F /  -12.4 °C 1027.0 in /  34774.2 hPa North 50.0 mph /  80.5 km/h 50.0 mph /  80.5 km/h 63 % 0.0 in /  0 mm 450.0 W/m2 CLR
12:12 16.7 °F /  -8.5 °C 9.6 °F /  -12.4 °C 1026.6 in /  34760.7 hPa NW 59.2 mph /  95.3 km/h 59.2 mph /  95.3 km/h 63 % 0.0 in /  0 mm 454.0 W/m2 CLR
12:17 16.7 °F /  -8.5 °C 9.3 °F /  -12.6 °C 1027.0 in /  34774.2 hPa NW 51.8 mph /  83.4 km/h 51.8 mph /  83.4 km/h 62 % 0.0 in /  0 mm 461.0 W/m2 CLR
12:22 16.7 °F /  -8.5 °C 9.3 °F /  -12.6 °C 1027.0 in /  34774.2 hPa NNW 42.6 mph /  68.6 km/h 42.6 mph /  68.6 km/h 62 % 0.0 in /  0 mm 459.0 W/m2 CLR
12:27 16.7 °F /  -8.5 °C 9.3 °F /  -12.6 °C 1027.0 in /  34774.2 hPa North 48.1 mph /  77.4 km/h 48.1 mph /  77.4 km/h 62 % 0.0 in /  0 mm 457.0 W/m2 CLR
12:32 17.2 °F /  -8.2 °C 9.9 °F /  -12.3 °C 1027.0 in /  34774.2 hPa North 40.7 mph /  65.5 km/h 40.7 mph /  65.5 km/h 62 % 0.0 in /  0 mm 468.0 W/m2 CLR
12:37 17.2 °F /  -8.2 °C 9.6 °F /  -12.4 °C 1027.0 in /  34774.2 hPa NNW 42.6 mph /  68.6 km/h 42.6 mph /  68.6 km/h 61 % 0.0 in /  0 mm 448.0 W/m2 CLR
12:42 17.2 °F /  -8.2 °C 9.6 °F /  -12.4 °C 1026.6 in /  34760.7 hPa NW 38.9 mph /  62.6 km/h 38.9 mph /  62.6 km/h 61 % 0.0 in /  0 mm 478.0 W/m2 CLR
12:47 17.2 °F /  -8.2 °C 9.4 °F /  -12.6 °C 1026.3 in /  34750.5 hPa NNW 55.5 mph /  89.3 km/h 55.5 mph /  89.3 km/h 60 % 0.0 in /  0 mm 485.0 W/m2 CLR
12:52 17.8 °F /  -7.9 °C 9.9 °F /  -12.3 °C 1026.6 in /  34760.7 hPa North 68.5 mph /  110.2 km/h 68.5 mph /  110.2 km/h 60 % 0.0 in /  0 mm 489.0 W/m2 CLR
12:57 17.8 °F /  -7.9 °C 10.2 °F /  -12.1 °C 1026.3 in /  34750.5 hPa NW 53.7 mph /  86.4 km/h 53.7 mph /  86.4 km/h 61 % 0.0 in /  0 mm 490.0 W/m2 CLR
13:02 17.8 °F /  -7.9 °C 9.9 °F /  -12.3 °C 1026.3 in /  34750.5 hPa North 55.5 mph /  89.3 km/h 55.5 mph /  89.3 km/h 60 % 0.0 in /  0 mm 490.0 W/m2 CLR
13:07 17.8 °F /  -7.9 °C 9.9 °F /  -12.3 °C 1026.3 in /  34750.5 hPa NNW 45.1 mph /  72.6 km/h 45.1 mph /  72.6 km/h 60 % 0.0 in /  0 mm 427.0 W/m2 CLR
13:12 17.8 °F /  -7.9 °C 9.9 °F /  -12.3 °C 1026.3 in /  34750.5 hPa North 50.0 mph /  80.5 km/h 50.0 mph /  80.5 km/h 60 % 0.0 in /  0 mm 366.0 W/m2 CLR
13:17 17.8 °F /  -7.9 °C 10.2 °F /  -12.1 °C 1026.3 in /  34750.5 hPa NW 42.6 mph /  68.6 km/h 42.6 mph /  68.6 km/h 61 % 0.0 in /  0 mm 381.0 W/m2 CLR
13:22 17.8 °F /  -7.9 °C 10.2 °F /  -12.1 °C 1026.3 in /  34750.5 hPa NNE 42.6 mph /  68.6 km/h 42.6 mph /  68.6 km/h 61 % 0.0 in /  0 mm 485.0 W/m2 CLR
13:27 18.3 °F /  -7.6 °C 10.2 °F /  -12.1 °C 1026.0 in /  34740.4 hPa NW 57.4 mph /  92.4 km/h 57.4 mph /  92.4 km/h 59 % 0.0 in /  0 mm 478.0 W/m2 CLR
13:32 17.8 °F /  -7.9 °C 9.9 °F /  -12.3 °C 1025.6 in /  34726.8 hPa North 61.1 mph /  98.3 km/h 61.1 mph /  98.3 km/h 60 % 0.0 in /  0 mm 476.0 W/m2 CLR
13:37 17.8 °F /  -7.9 °C 9.9 °F /  -12.3 °C 1025.6 in /  34726.8 hPa North 61.1 mph /  98.3 km/h 61.1 mph /  98.3 km/h 60 % 0.0 in /  0 mm 471.0 W/m2 CLR
13:42 17.8 °F /  -7.9 °C 9.9 °F /  -12.3 °C 1025.6 in /  34726.8 hPa NNE 57.9 mph /  93.2 km/h 57.9 mph /  93.2 km/h 60 % 0.0 in /  0 mm 471.0 W/m2 CLR
13:47 17.8 °F /  -7.9 °C 9.9 °F /  -12.3 °C 1025.6 in /  34726.8 hPa NNW 59.2 mph /  95.3 km/h 59.2 mph /  95.3 km/h 60 % 0.0 in /  0 mm 468.0 W/m2 CLR
13:52 17.8 °F /  -7.9 °C 9.9 °F /  -12.3 °C 1025.6 in /  34726.8 hPa NW 55.5 mph /  89.3 km/h 55.5 mph /  89.3 km/h 60 % 0.0 in /  0 mm 468.0 W/m2 CLR
13:57 17.8 °F /  -7.9 °C 9.9 °F /  -12.3 °C 1025.6 in /  34726.8 hPa NNE 62.9 mph /  101.2 km/h 62.9 mph /  101.2 km/h 60 % 0.0 in /  0 mm 462.0 W/m2 CLR
14:02 17.8 °F /  -7.9 °C 9.9 °F /  -12.3 °C 1025.3 in /  34716.7 hPa NNW 48.1 mph /  77.4 km/h 48.1 mph /  77.4 km/h 60 % 0.0 in /  0 mm 457.0 W/m2 CLR
14:07 17.8 °F /  -7.9 °C 9.9 °F /  -12.3 °C 1025.3 in /  34716.7 hPa North 42.6 mph /  68.6 km/h 42.6 mph /  68.6 km/h 60 % 0.0 in /  0 mm 454.0 W/m2 CLR
14:12 18.3 °F /  -7.6 °C 10.4 °F /  -12 °C 1025.3 in /  34716.7 hPa North 54.7 mph /  88 km/h 54.7 mph /  88 km/h 60 % 0.0 in /  0 mm 452.0 W/m2 CLR
14:17 17.8 °F /  -7.9 °C 9.9 °F /  -12.3 °C 1024.9 in /  34703.1 hPa North 55.5 mph /  89.3 km/h 55.5 mph /  89.3 km/h 60 % 0.0 in /  0 mm 446.0 W/m2 CLR
14:22 18.3 °F /  -7.6 °C 10.2 °F /  -12.1 °C 1024.9 in /  34703.1 hPa NNW 50.0 mph /  80.5 km/h 50.0 mph /  80.5 km/h 59 % 0.0 in /  0 mm 441.0 W/m2 CLR
14:27 18.3 °F /  -7.6 °C 10.4 °F /  -12 °C 1024.9 in /  34703.1 hPa North 66.6 mph /  107.2 km/h 66.6 mph /  107.2 km/h 60 % 0.0 in /  0 mm 436.0 W/m2 CLR
14:32 17.8 °F /  -7.9 °C 9.9 °F /  -12.3 °C 1025.3 in /  34716.7 hPa NW 40.7 mph /  65.5 km/h 40.7 mph /  65.5 km/h 60 % 0.0 in /  0 mm 431.0 W/m2 CLR
14:37 18.3 °F /  -7.6 °C 10.4 °F /  -12 °C 1025.6 in /  34726.8 hPa North 51.8 mph /  83.4 km/h 51.8 mph /  83.4 km/h 60 % 0.0 in /  0 mm 431.0 W/m2 CLR
14:42 17.8 °F /  -7.9 °C 9.9 °F /  -12.3 °C 1025.6 in /  34726.8 hPa NNW 25.9 mph /  41.7 km/h 25.9 mph /  41.7 km/h 60 % 0.0 in /  0 mm 427.0 W/m2 CLR
14:47 18.3 °F /  -7.6 °C 10.4 °F /  -12 °C 1026.0 in /  34740.4 hPa North 46.3 mph /  74.5 km/h 46.3 mph /  74.5 km/h 60 % 0.0 in /  0 mm 420.0 W/m2 CLR
14:52 18.3 °F /  -7.6 °C 10.4 °F /  -12 °C 1025.6 in /  34726.8 hPa NW 31.5 mph /  50.7 km/h 31.5 mph /  50.7 km/h 60 % 0.0 in /  0 mm 411.0 W/m2 CLR
14:57 18.3 °F /  -7.6 °C 10.7 °F /  -11.8 °C 1025.6 in /  34726.8 hPa NNW 29.6 mph /  47.6 km/h 29.6 mph /  47.6 km/h 61 % 0.0 in /  0 mm 399.0 W/m2 CLR
15:02 18.3 °F /  -7.6 °C 10.7 °F /  -11.8 °C 1025.6 in /  34726.8 hPa NW 38.9 mph /  62.6 km/h 38.9 mph /  62.6 km/h 61 % 0.0 in /  0 mm 387.0 W/m2 CLR
15:07 18.3 °F /  -7.6 °C 10.4 °F /  -12 °C 1025.6 in /  34726.8 hPa NNW 48.1 mph /  77.4 km/h 48.1 mph /  77.4 km/h 60 % 0.0 in /  0 mm 381.0 W/m2 CLR
15:12 18.3 °F /  -7.6 °C 10.7 °F /  -11.8 °C 1026.0 in /  34740.4 hPa North 44.4 mph /  71.5 km/h 44.4 mph /  71.5 km/h 61 % 0.0 in /  0 mm 373.0 W/m2 CLR
15:17 17.8 °F /  -7.9 °C 10.2 °F /  -12.1 °C 1026.0 in /  34740.4 hPa NNW 37.0 mph /  59.5 km/h 37.0 mph /  59.5 km/h 61 % 0.0 in /  0 mm 366.0 W/m2 CLR
15:22 17.8 °F /  -7.9 °C 10.2 °F /  -12.1 °C 1026.3 in /  34750.5 hPa NNW 40.7 mph /  65.5 km/h 40.7 mph /  65.5 km/h 61 % 0.0 in /  0 mm 357.0 W/m2 CLR
15:27 18.3 °F /  -7.6 °C 10.7 °F /  -11.8 °C 1026.3 in /  34750.5 hPa NNW 40.7 mph /  65.5 km/h 40.7 mph /  65.5 km/h 61 % 0.0 in /  0 mm 345.0 W/m2 CLR
15:32 18.3 °F /  -7.6 °C 10.7 °F /  -11.8 °C 1026.0 in /  34740.4 hPa North 35.4 mph /  57 km/h 35.4 mph /  57 km/h 61 % 0.0 in /  0 mm 338.0 W/m2 CLR
15:37 17.8 °F /  -7.9 °C 10.2 °F /  -12.1 °C 1026.3 in /  34750.5 hPa North 33.3 mph /  53.6 km/h 33.3 mph /  53.6 km/h 61 % 0.0 in /  0 mm 327.0 W/m2 CLR
15:42 17.8 °F /  -7.9 °C 10.4 °F /  -12 °C 1026.3 in /  34750.5 hPa North 37.0 mph /  59.5 km/h 37.0 mph /  59.5 km/h 62 % 0.0 in /  0 mm 316.0 W/m2 CLR
15:47 17.8 °F /  -7.9 °C 10.4 °F /  -12 °C 1026.3 in /  34750.5 hPa North 42.6 mph /  68.6 km/h 42.6 mph /  68.6 km/h 62 % 0.0 in /  0 mm 302.0 W/m2 CLR
15:52 18.3 °F /  -7.6 °C 10.7 °F /  -11.8 °C 1026.3 in /  34750.5 hPa NNW 46.7 mph /  75.2 km/h 46.7 mph /  75.2 km/h 61 % 0.0 in /  0 mm 301.0 W/m2 CLR
15:57 17.8 °F /  -7.9 °C 10.2 °F /  -12.1 °C 1026.3 in /  34750.5 hPa NNW 44.4 mph /  71.5 km/h 44.4 mph /  71.5 km/h 61 % 0.0 in /  0 mm 292.0 W/m2 CLR
16:02 17.8 °F /  -7.9 °C 10.4 °F /  -12 °C 1026.3 in /  34750.5 hPa NW 53.7 mph /  86.4 km/h 53.7 mph /  86.4 km/h 62 % 0.0 in /  0 mm 292.0 W/m2 CLR
16:07 17.8 °F /  -7.9 °C 10.4 °F /  -12 °C 1026.3 in /  34750.5 hPa NNW 42.6 mph /  68.6 km/h 42.6 mph /  68.6 km/h 62 % 0.0 in /  0 mm 265.0 W/m2 CLR
16:13 17.8 °F /  -7.9 °C 10.4 °F /  -12 °C 1026.3 in /  34750.5 hPa NW 40.2 mph /  64.7 km/h 40.2 mph /  64.7 km/h 62 % 0.0 in /  0 mm 65.0 W/m2 CLR
16:18 17.2 °F /  -8.2 °C 10.1 °F /  -12.2 °C 1026.3 in /  34750.5 hPa NNW 46.3 mph /  74.5 km/h 46.3 mph /  74.5 km/h 63 % 0.0 in /  0 mm 116.0 W/m2 CLR
16:23 17.2 °F /  -8.2 °C 10.1 °F /  -12.2 °C 1026.3 in /  34750.5 hPa NNW 44.4 mph /  71.5 km/h 44.4 mph /  71.5 km/h 63 % 0.0 in /  0 mm 211.0 W/m2 FEW
16:28 17.2 °F /  -8.2 °C 10.1 °F /  -12.2 °C 1026.3 in /  34750.5 hPa North 38.9 mph /  62.6 km/h 38.9 mph /  62.6 km/h 63 % 0.0 in /  0 mm 197.0 W/m2 CLR
16:33 17.2 °F /  -8.2 °C 10.1 °F /  -12.2 °C 1026.3 in /  34750.5 hPa NW 44.4 mph /  71.5 km/h 44.4 mph /  71.5 km/h 63 % 0.0 in /  0 mm 181.0 W/m2 CLR
16:38 17.2 °F /  -8.2 °C 10.1 °F /  -12.2 °C 1026.3 in /  34750.5 hPa NNW 50.0 mph /  80.5 km/h 50.0 mph /  80.5 km/h 63 % 0.0 in /  0 mm 172.0 W/m2 CLR
16:43 17.2 °F /  -8.2 °C 10.1 °F /  -12.2 °C 1026.3 in /  34750.5 hPa NNW 48.1 mph /  77.4 km/h 48.1 mph /  77.4 km/h 63 % 0.0 in /  0 mm 160.0 W/m2 CLR
16:48 16.7 °F /  -8.5 °C 9.8 °F /  -12.3 °C 1026.6 in /  34760.7 hPa NNW 42.6 mph /  68.6 km/h 42.6 mph /  68.6 km/h 64 % 0.0 in /  0 mm 146.0 W/m2 CLR
16:53 16.7 °F /  -8.5 °C 9.8 °F /  -12.3 °C 1026.6 in /  34760.7 hPa North 53.1 mph /  85.5 km/h 53.1 mph /  85.5 km/h 64 % 0.0 in /  0 mm 128.0 W/m2 CLR
16:58 16.7 °F /  -8.5 °C 10.1 °F /  -12.2 °C 1026.6 in /  34760.7 hPa NNW 33.3 mph /  53.6 km/h 33.3 mph /  53.6 km/h 65 % 0.0 in /  0 mm 118.0 W/m2 CLR
17:03 16.7 °F /  -8.5 °C 10.1 °F /  -12.2 °C 1026.6 in /  34760.7 hPa NNW 45.1 mph /  72.6 km/h 45.1 mph /  72.6 km/h 65 % 0.0 in /  0 mm 98.0 W/m2 CLR
17:08 16.7 °F /  -8.5 °C 10.1 °F /  -12.2 °C 1026.6 in /  34760.7 hPa NW 29.6 mph /  47.6 km/h 29.6 mph /  47.6 km/h 65 % 0.0 in /  0 mm 90.0 W/m2 CLR
17:13 16.1 °F /  -8.8 °C 9.5 °F /  -12.5 °C 1026.6 in /  34760.7 hPa NNW 44.4 mph /  71.5 km/h 44.4 mph /  71.5 km/h 65 % 0.0 in /  0 mm 74.0 W/m2 FEW
17:18 16.1 °F /  -8.8 °C 9.8 °F /  -12.3 °C 1026.6 in /  34760.7 hPa North 50.0 mph /  80.5 km/h 50.0 mph /  80.5 km/h 66 % 0.0 in /  0 mm 62.0 W/m2 SCT
17:23 16.1 °F /  -8.8 °C 9.8 °F /  -12.3 °C 1026.6 in /  34760.7 hPa NNW 48.1 mph /  77.4 km/h 48.1 mph /  77.4 km/h 66 % 0.0 in /  0 mm 47.0 W/m2 SCT
17:28 16.1 °F /  -8.8 °C 10.0 °F /  -12.2 °C 1026.3 in /  34750.5 hPa NNW 48.1 mph /  77.4 km/h 48.1 mph /  77.4 km/h 67 % 0.0 in /  0 mm 35.0 W/m2 BKN
17:33 15.6 °F /  -9.1 °C 9.2 °F /  -12.7 °C 1026.6 in /  34760.7 hPa North 55.5 mph /  89.3 km/h 55.5 mph /  89.3 km/h 66 % 0.0 in /  0 mm 25.0 W/m2 BKN
17:38 15.6 °F /  -9.1 °C 9.4 °F /  -12.6 °C 1026.6 in /  34760.7 hPa NNW 41.8 mph /  67.3 km/h 41.8 mph /  67.3 km/h 67 % 0.0 in /  0 mm 16.0 W/m2 BKN
17:43 15.6 °F /  -9.1 °C 9.4 °F /  -12.6 °C 1026.6 in /  34760.7 hPa North 51.8 mph /  83.4 km/h 51.8 mph /  83.4 km/h 67 % 0.0 in /  0 mm 12.0 W/m2 BKN
17:48 15.6 °F /  -9.1 °C 9.4 °F /  -12.6 °C 1026.6 in /  34760.7 hPa NNW 46.3 mph /  74.5 km/h 46.3 mph /  74.5 km/h 67 % 0.0 in /  0 mm 11.0 W/m2 BKN
17:53 15.6 °F /  -9.1 °C 9.7 °F /  -12.4 °C 1026.6 in /  34760.7 hPa North 42.6 mph /  68.6 km/h 42.6 mph /  68.6 km/h 68 % 0.0 in /  0 mm 9.0 W/m2 BKN
17:58 15.0 °F /  -9.4 °C 9.1 °F /  -12.7 °C 1026.6 in /  34760.7 hPa NNW 37.0 mph /  59.5 km/h 37.0 mph /  59.5 km/h 68 % 0.0 in /  0 mm 7.0 W/m2 BKN
18:03 15.0 °F /  -9.4 °C 9.1 °F /  -12.7 °C 1027.0 in /  34774.2 hPa North 40.7 mph /  65.5 km/h 40.7 mph /  65.5 km/h 68 % 0.0 in /  0 mm 5.0 W/m2 OVC
18:08 15.0 °F /  -9.4 °C 9.1 °F /  -12.7 °C 1027.0 in /  34774.2 hPa NNW 42.6 mph /  68.6 km/h 42.6 mph /  68.6 km/h 68 % 0.0 in /  0 mm 0.0 W/m2 OVC
18:13 15.0 °F /  -9.4 °C 9.3 °F /  -12.6 °C 1027.0 in /  34774.2 hPa NNW 40.7 mph /  65.5 km/h 40.7 mph /  65.5 km/h 69 % 0.0 in /  0 mm 0.0 W/m2 CLR
18:18 15.0 °F /  -9.4 °C 9.3 °F /  -12.6 °C 1027.0 in /  34774.2 hPa NW 38.9 mph /  62.6 km/h 38.9 mph /  62.6 km/h 69 % 0.0 in /  0 mm 0.0 W/m2 CLR
18:23 15.0 °F /  -9.4 °C 9.3 °F /  -12.6 °C 1027.0 in /  34774.2 hPa NNW 42.6 mph /  68.6 km/h 42.6 mph /  68.6 km/h 69 % 0.0 in /  0 mm 0.0 W/m2 CLR
18:28 15.0 °F /  -9.4 °C 9.3 °F /  -12.6 °C 1027.0 in /  34774.2 hPa North 55.5 mph /  89.3 km/h 55.5 mph /  89.3 km/h 69 % 0.0 in /  0 mm 0.0 W/m2 CLR
18:33 15.0 °F /  -9.4 °C 9.3 °F /  -12.6 °C 1027.0 in /  34774.2 hPa North 44.4 mph /  71.5 km/h 44.4 mph /  71.5 km/h 69 % 0.0 in /  0 mm 0.0 W/m2 CLR
18:38 15.0 °F /  -9.4 °C 9.3 °F /  -12.6 °C 1027.3 in /  34784.4 hPa NNW 44.4 mph /  71.5 km/h 44.4 mph /  71.5 km/h 69 % 0.0 in /  0 mm 0.0 W/m2 CLR
18:43 15.0 °F /  -9.4 °C 9.3 °F /  -12.6 °C 1027.3 in /  34784.4 hPa NW 31.5 mph /  50.7 km/h 31.5 mph /  50.7 km/h 69 % 0.0 in /  0 mm 0.0 W/m2 CLR
18:48 15.0 °F /  -9.4 °C 9.3 °F /  -12.6 °C 1027.3 in /  34784.4 hPa NW 31.5 mph /  50.7 km/h 31.5 mph /  50.7 km/h 69 % 0.0 in /  0 mm 0.0 W/m2 CLR
18:53 14.4 °F /  -9.8 °C 8.8 °F /  -12.9 °C 1027.3 in /  34784.4 hPa NW 42.6 mph /  68.6 km/h 42.6 mph /  68.6 km/h 69 % 0.0 in /  0 mm 0.0 W/m2 CLR
18:58 14.4 °F /  -9.8 °C 8.8 °F /  -12.9 °C 1027.7 in /  34797.9 hPa NW 33.8 mph /  54.4 km/h 33.8 mph /  54.4 km/h 69 % 0.0 in /  0 mm 0.0 W/m2 CLR
19:03 14.4 °F /  -9.8 °C 8.8 °F /  -12.9 °C 1027.7 in /  34797.9 hPa NW 31.5 mph /  50.7 km/h 31.5 mph /  50.7 km/h 69 % 0.0 in /  0 mm 0.0 W/m2 CLR
19:08 14.4 °F /  -9.8 °C 9.1 °F /  -12.7 °C 1027.7 in /  34797.9 hPa NW 31.5 mph /  50.7 km/h 31.5 mph /  50.7 km/h 70 % 0.0 in /  0 mm 0.0 W/m2 CLR
19:13 14.4 °F /  -9.8 °C 9.1 °F /  -12.7 °C 1028.0 in /  34808.1 hPa NW 46.3 mph /  74.5 km/h 46.3 mph /  74.5 km/h 70 % 0.0 in /  0 mm 0.0 W/m2 CLR
19:18 14.4 °F /  -9.8 °C 9.1 °F /  -12.7 °C 1027.7 in /  34797.9 hPa NW 50.0 mph /  80.5 km/h 50.0 mph /  80.5 km/h 70 % 0.0 in /  0 mm 0.0 W/m2 CLR
19:23 14.4 °F /  -9.8 °C 9.1 °F /  -12.7 °C 1028.0 in /  34808.1 hPa NW 46.3 mph /  74.5 km/h 46.3 mph /  74.5 km/h 70 % 0.0 in /  0 mm 0.0 W/m2 CLR
19:28 14.4 °F /  -9.8 °C 9.1 °F /  -12.7 °C 1028.0 in /  34808.1 hPa NW 40.7 mph /  65.5 km/h 40.7 mph /  65.5 km/h 70 % 0.0 in /  0 mm 0.0 W/m2 CLR
19:33 14.4 °F /  -9.8 °C 9.1 °F /  -12.7 °C 1028.0 in /  34808.1 hPa NNW 37.0 mph /  59.5 km/h 37.0 mph /  59.5 km/h 70 % 0.0 in /  0 mm 0.0 W/m2 CLR
19:38 14.4 °F /  -9.8 °C 9.1 °F /  -12.7 °C 1028.0 in /  34808.1 hPa NW 44.4 mph /  71.5 km/h 44.4 mph /  71.5 km/h 70 % 0.0 in /  0 mm 0.0 W/m2 CLR
19:43 14.4 °F /  -9.8 °C 9.1 °F /  -12.7 °C 1028.0 in /  34808.1 hPa NW 38.9 mph /  62.6 km/h 38.9 mph /  62.6 km/h 70 % 0.0 in /  0 mm 0.0 W/m2 CLR
19:48 14.4 °F /  -9.8 °C 9.2 °F /  -12.7 °C 1028.0 in /  34808.1 hPa WNW 42.6 mph /  68.6 km/h 42.6 mph /  68.6 km/h 71 % 0.0 in /  0 mm 0.0 W/m2 CLR
19:53 14.4 °F /  -9.8 °C 9.1 °F /  -12.7 °C 1028.0 in /  34808.1 hPa NNW 35.4 mph /  57 km/h 35.4 mph /  57 km/h 70 % 0.0 in /  0 mm 0.0 W/m2 CLR
19:58 14.4 °F /  -9.8 °C 9.2 °F /  -12.7 °C 1028.0 in /  34808.1 hPa NW 44.4 mph /  71.5 km/h 44.4 mph /  71.5 km/h 71 % 0.0 in /  0 mm 0.0 W/m2 CLR
20:03 13.9 °F /  -10.1 °C 8.7 °F /  -12.9 °C 1028.0 in /  34808.1 hPa NW 31.5 mph /  50.7 km/h 31.5 mph /  50.7 km/h 71 % 0.0 in /  0 mm 0.0 W/m2 CLR
20:08 13.9 °F /  -10.1 °C 8.7 °F /  -12.9 °C 1028.3 in /  34818.2 hPa NW 42.6 mph /  68.6 km/h 42.6 mph /  68.6 km/h 71 % 0.0 in /  0 mm 0.0 W/m2 CLR
20:13 13.9 °F /  -10.1 °C 8.7 °F /  -12.9 °C 1028.3 in /  34818.2 hPa NW 31.5 mph /  50.7 km/h 31.5 mph /  50.7 km/h 71 % 0.0 in /  0 mm 0.0 W/m2 CLR
20:18 13.9 °F /  -10.1 °C 8.7 °F /  -12.9 °C 1028.7 in /  34831.8 hPa NW 25.9 mph /  41.7 km/h 25.9 mph /  41.7 km/h 71 % 0.0 in /  0 mm 0.0 W/m2 CLR
20:23 13.9 °F /  -10.1 °C 8.7 °F /  -12.9 °C 1028.3 in /  34818.2 hPa NW 37.0 mph /  59.5 km/h 37.0 mph /  59.5 km/h 71 % 0.0 in /  0 mm 0.0 W/m2 CLR
20:28 13.9 °F /  -10.1 °C 8.7 °F /  -12.9 °C 1028.3 in /  34818.2 hPa NNW 42.6 mph /  68.6 km/h 42.6 mph /  68.6 km/h 71 % 0.0 in /  0 mm 0.0 W/m2 CLR
20:33 13.9 °F /  -10.1 °C 8.7 °F /  -12.9 °C 1028.3 in /  34818.2 hPa NW 35.2 mph /  56.6 km/h 35.2 mph /  56.6 km/h 71 % 0.0 in /  0 mm 0.0 W/m2 CLR
20:38 13.9 °F /  -10.1 °C 8.7 °F /  -12.9 °C 1028.3 in /  34818.2 hPa NW 37.0 mph /  59.5 km/h 37.0 mph /  59.5 km/h 71 % 0.0 in /  0 mm 0.0 W/m2 CLR
20:43 13.9 °F /  -10.1 °C 8.7 °F /  -12.9 °C 1028.7 in /  34831.8 hPa NNW 42.6 mph /  68.6 km/h 42.6 mph /  68.6 km/h 71 % 0.0 in /  0 mm 0.0 W/m2 CLR
20:48 13.9 °F /  -10.1 °C 8.7 °F /  -12.9 °C 1028.3 in /  34818.2 hPa NW 42.6 mph /  68.6 km/h 42.6 mph /  68.6 km/h 71 % 0.0 in /  0 mm 0.0 W/m2 CLR
20:50 13.9 °F /  -10.1 °C 8.9 °F /  -12.8 °C 1028.3 in /  34818.2 hPa NW 42.6 mph /  68.6 km/h 42.6 mph /  68.6 km/h 72 % 0.0 in /  0 mm 0.0 W/m2 CLR
20:55 13.9 °F /  -10.1 °C 8.9 °F /  -12.8 °C 1028.7 in /  34831.8 hPa NW 42.6 mph /  68.6 km/h 42.6 mph /  68.6 km/h 72 % 0.0 in /  0 mm 0.0 W/m2 CLR
21:00 13.9 °F /  -10.1 °C 8.9 °F /  -12.8 °C 1028.7 in /  34831.8 hPa NW 40.7 mph /  65.5 km/h 40.7 mph /  65.5 km/h 72 % 0.0 in /  0 mm 0.0 W/m2 CLR
21:05 13.9 °F /  -10.1 °C 9.1 °F /  -12.7 °C 1028.7 in /  34831.8 hPa NW 38.9 mph /  62.6 km/h 38.9 mph /  62.6 km/h 73 % 0.0 in /  0 mm 0.0 W/m2 CLR
21:15 13.9 °F /  -10.1 °C 9.1 °F /  -12.7 °C 1028.7 in /  34831.8 hPa WNW 35.2 mph /  56.6 km/h 35.2 mph /  56.6 km/h 73 % 0.0 in /  0 mm 0.0 W/m2 CLR
21:20 13.9 °F /  -10.1 °C 9.1 °F /  -12.7 °C 1028.7 in /  34831.8 hPa WNW 33.8 mph /  54.4 km/h 33.8 mph /  54.4 km/h 73 % 0.0 in /  0 mm 0.0 W/m2 CLR
21:25 13.9 °F /  -10.1 °C 9.1 °F /  -12.7 °C 1028.7 in /  34831.8 hPa WNW 42.6 mph /  68.6 km/h 42.6 mph /  68.6 km/h 73 % 0.0 in /  0 mm 0.0 W/m2 CLR
21:30 13.9 °F /  -10.1 °C 9.3 °F /  -12.6 °C 1028.7 in /  34831.8 hPa NW 38.6 mph /  62.1 km/h 38.6 mph /  62.1 km/h 74 % 0.0 in /  0 mm 0.0 W/m2 CLR
21:35 13.9 °F /  -10.1 °C 9.1 °F /  -12.7 °C 1028.7 in /  34831.8 hPa NW 37.0 mph /  59.5 km/h 37.0 mph /  59.5 km/h 73 % 0.0 in /  0 mm 0.0 W/m2 CLR
21:40 13.9 °F /  -10.1 °C 9.3 °F /  -12.6 °C 1028.7 in /  34831.8 hPa WNW 38.9 mph /  62.6 km/h 38.9 mph /  62.6 km/h 74 % 0.0 in /  0 mm 0.0 W/m2 CLR
21:45 13.9 °F /  -10.1 °C 9.1 °F /  -12.7 °C 1028.7 in /  34831.8 hPa NW 37.0 mph /  59.5 km/h 37.0 mph /  59.5 km/h 73 % 0.0 in /  0 mm 0.0 W/m2 CLR
21:50 13.9 °F /  -10.1 °C 9.3 °F /  -12.6 °C 1028.3 in /  34818.2 hPa WNW 42.6 mph /  68.6 km/h 42.6 mph /  68.6 km/h 74 % 0.0 in /  0 mm 0.0 W/m2 CLR
21:55 13.9 °F /  -10.1 °C 9.3 °F /  -12.6 °C 1028.7 in /  34831.8 hPa WNW 38.9 mph /  62.6 km/h 38.9 mph /  62.6 km/h 74 % 0.0 in /  0 mm 0.0 W/m2 CLR
22:00 13.9 °F /  -10.1 °C 9.1 °F /  -12.7 °C 1028.7 in /  34831.8 hPa NW 37.0 mph /  59.5 km/h 37.0 mph /  59.5 km/h 73 % 0.0 in /  0 mm 0.0 W/m2 CLR
22:05 13.9 °F /  -10.1 °C 9.1 °F /  -12.7 °C 1028.7 in /  34831.8 hPa WNW 42.6 mph /  68.6 km/h 42.6 mph /  68.6 km/h 73 % 0.0 in /  0 mm 0.0 W/m2 CLR
22:10 13.9 °F /  -10.1 °C 9.3 °F /  -12.6 °C 1028.7 in /  34831.8 hPa NW 37.0 mph /  59.5 km/h 37.0 mph /  59.5 km/h 74 % 0.0 in /  0 mm 0.0 W/m2 CLR
22:15 13.9 °F /  -10.1 °C 9.3 °F /  -12.6 °C 1028.7 in /  34831.8 hPa WNW 37.0 mph /  59.5 km/h 37.0 mph /  59.5 km/h 74 % 0.0 in /  0 mm 0.0 W/m2 CLR
22:20 13.3 °F /  -10.4 °C 8.8 °F /  -12.9 °C 1028.7 in /  34831.8 hPa NW 33.3 mph /  53.6 km/h 33.3 mph /  53.6 km/h 74 % 0.0 in /  0 mm 0.0 W/m2 CLR
22:25 13.9 °F /  -10.1 °C 9.3 °F /  -12.6 °C 1028.7 in /  34831.8 hPa WNW 37.0 mph /  59.5 km/h 37.0 mph /  59.5 km/h 74 % 0.0 in /  0 mm 0.0 W/m2 CLR
22:30 13.9 °F /  -10.1 °C 9.3 °F /  -12.6 °C 1028.7 in /  34831.8 hPa NW 29.6 mph /  47.6 km/h 29.6 mph /  47.6 km/h 74 % 0.0 in /  0 mm 0.0 W/m2 CLR
22:35 13.3 °F /  -10.4 °C 8.8 °F /  -12.9 °C 1029.0 in /  34841.9 hPa NW 29.6 mph /  47.6 km/h 29.6 mph /  47.6 km/h 74 % 0.0 in /  0 mm 0.0 W/m2 CLR
22:40 13.3 °F /  -10.4 °C 8.8 °F /  -12.9 °C 1028.7 in /  34831.8 hPa NW 35.2 mph /  56.6 km/h 35.2 mph /  56.6 km/h 74 % 0.0 in /  0 mm 0.0 W/m2 CLR
22:50 13.9 °F /  -10.1 °C 9.1 °F /  -12.7 °C 1029.0 in /  34841.9 hPa WNW 38.9 mph /  62.6 km/h 38.9 mph /  62.6 km/h 73 % 0.0 in /  0 mm 0.0 W/m2 CLR
22:55 13.9 °F /  -10.1 °C 9.3 °F /  -12.6 °C 1029.0 in /  34841.9 hPa NW 37.0 mph /  59.5 km/h 37.0 mph /  59.5 km/h 74 % 0.0 in /  0 mm 0.0 W/m2 CLR
23:00 13.9 °F /  -10.1 °C 9.3 °F /  -12.6 °C 1028.7 in /  34831.8 hPa NNW 37.0 mph /  59.5 km/h 37.0 mph /  59.5 km/h 74 % 0.0 in /  0 mm 0.0 W/m2 CLR
23:05 13.3 °F /  -10.4 °C 8.8 °F /  -12.9 °C 1028.7 in /  34831.8 hPa NW 35.2 mph /  56.6 km/h 35.2 mph /  56.6 km/h 74 % 0.0 in /  0 mm 0.0 W/m2 CLR
23:10 13.3 °F /  -10.4 °C 9.0 °F /  -12.8 °C 1028.7 in /  34831.8 hPa NW 29.6 mph /  47.6 km/h 29.6 mph /  47.6 km/h 75 % 0.0 in /  0 mm 0.0 W/m2 CLR
23:15 13.3 °F /  -10.4 °C 9.0 °F /  -12.8 °C 1028.7 in /  34831.8 hPa NW 38.9 mph /  62.6 km/h 38.9 mph /  62.6 km/h 75 % 0.0 in /  0 mm 0.0 W/m2 CLR
23:20 13.3 °F /  -10.4 °C 9.0 °F /  -12.8 °C 1028.7 in /  34831.8 hPa NW 31.5 mph /  50.7 km/h 31.5 mph /  50.7 km/h 75 % 0.0 in /  0 mm 0.0 W/m2 CLR
23:25 13.3 °F /  -10.4 °C 9.0 °F /  -12.8 °C 1028.7 in /  34831.8 hPa NNW 33.3 mph /  53.6 km/h 33.3 mph /  53.6 km/h 75 % 0.0 in /  0 mm 0.0 W/m2 CLR
23:30 13.3 °F /  -10.4 °C 9.0 °F /  -12.8 °C 1028.7 in /  34831.8 hPa NW 29.6 mph /  47.6 km/h 29.6 mph /  47.6 km/h 75 % 0.0 in /  0 mm 0.0 W/m2 CLR
23:40 13.3 °F /  -10.4 °C 8.8 °F /  -12.9 °C 1028.7 in /  34831.8 hPa NW 24.1 mph /  38.8 km/h 24.1 mph /  38.8 km/h 74 % 0.0 in /  0 mm 0.0 W/m2 CLR
23:45 13.3 °F /  -10.4 °C 8.6 °F /  -13 °C 1029.0 in /  34841.9 hPa NW 29.6 mph /  47.6 km/h 29.6 mph /  47.6 km/h 73 % 0.0 in /  0 mm 0.0 W/m2 CLR
23:50 13.9 °F /  -10.1 °C 8.9 °F /  -12.8 °C 1029.0 in /  34841.9 hPa WNW 24.1 mph /  38.8 km/h 24.1 mph /  38.8 km/h 72 % 0.0 in /  0 mm 0.0 W/m2 CLR
23:55 13.3 °F /  -10.4 °C 8.4 °F /  -13.1 °C 1029.0 in /  34841.9 hPa WNW 33.3 mph /  53.6 km/h 33.3 mph /  53.6 km/h 72 % 0.0 in /  0 mm 0.0 W/m2 CLR
Lo Temps de Massalio
Compliments of Weather Underground - 1.25 mb